ADDS METAR Data INFO
IDs: Format: Raw Decoded Include TAF

Data at: 0157 UTC 17 Oct 2017

KOVE 170153Z AUTO 00000KT 10SM CLR 22/01 A3005 RMK AO2 SLP177 T02170011
KOVE 170053Z AUTO 00000KT 9SM CLR 25/03 A3004 RMK AO2 SLP174 T02500033
KOVE 162353Z AUTO 29003KT 10SM CLR 27/01 A3006 RMK AO2 SLP180 T02720011 10283 20189 56021
KOVE 162253Z AUTO 27003KT 10SM CLR 27/02 A3008 RMK AO2 SLP186 T02720017
KOVE 162153Z AUTO 29004KT 10SM CLR 27/02 A3009 RMK AO2 SLP190 T02720017
KOVE 162053Z AUTO 26004KT 10SM CLR 26/01 A3012 RMK AO2 SLP201 T02560011 58023
KOVE 161953Z AUTO 30003KT 10SM CLR 24/M01 A3015 RMK AO2 SLP211 T02441006
KOVE 161853Z AUTO VRB03KT 10SM CLR 22/03 A3017 RMK AO2 SLP219 T02170033
KOVE 161753Z AUTO VRB04KT 10SM CLR 19/04 A3019 RMK AO2 SLP225 T01890039 10189 20067 50004
KOVE 161653Z AUTO 00000KT 10SM CLR 16/03 A3020 RMK AO2 SLP229 T01610033
KOVE 161553Z AUTO 00000KT 10SM CLR 12/04 A3020 RMK AO2 SLP227 T01170044
KOVE 161453Z AUTO 13003KT 10SM CLR 09/02 A3018 RMK AO2 SLP221 T00890022 51010
KOVE 161353Z AUTO 20003KT 10SM CLR 08/02 A3017 RMK AO2 SLP219 T00830017
KOVE 161253Z AUTO 29004KT 10SM CLR 10/01 A3016 RMK AO2 SLP213 T01000011
KOVE 161153Z AUTO 00000KT 10SM CLR 11/01 A3015 RMK AO2 SLP210 T01060011 10156 20089 55005
KOVE 161053Z AUTO 30003KT 10SM CLR 13/02 A3015 RMK AO2 SLP209 T01330022
KOVE 160953Z AUTO 00000KT 10SM CLR 12/03 A3016 RMK AO2 SLP214 T01220028
KOVE 160853Z AUTO 00000KT 10SM CLR 12/02 A3016 RMK AO2 SLP215 T01220022 51005
KOVE 160753Z AUTO 29004KT 10SM CLR 13/03 A3016 RMK AO2 SLP215 T01330033 402830072
KOVE 160653Z AUTO 00000KT 10SM CLR 14/03 A3015 RMK AO2 SLP212 T01440028
KOVE 160553Z AUTO 00000KT 10SM CLR 14/01 A3015 RMK AO2 SLP210 T01440011 10278 20144 51007
KOVE 160453Z AUTO 06003KT 10SM CLR 15/01 A3015 RMK AO2 SLP211 T01500011
KOVE 160353Z AUTO 02003KT 10SM CLR 17/01 A3014 RMK AO2 SLP208 T01720006
KOVE 160253Z AUTO 02003KT 10SM CLR 19/00 A3013 RMK AO2 SLP204 T01940000 53004
KOVE 160153Z AUTO 29003KT 10SM CLR 21/00 A3012 RMK AO2 SLP200 T02060000
KOVE 160053Z AUTO 00000KT 10SM CLR 26/M01 A3011 RMK AO2 SLP198 T02561006
KOVE 152353Z AUTO 00000KT 10SM CLR 28/M03 A3012 RMK AO2 SLP199 T02781028 10283 20194 56012
KOVE 152253Z AUTO 00000KT 10SM CLR 27/M02 A3013 RMK AO2 SLP203 T02721022
KOVE 152153Z AUTO 00000KT 10SM CLR 27/M05 A3014 RMK AO2 SLP206 T02721050
KOVE 152053Z AUTO 00000KT 10SM CLR 26/M01 A3015 RMK AO2 SLP211 T02611011 58016
KOVE 151953Z AUTO 00000KT 10SM CLR 24/00 A3019 RMK AO2 SLP222 T02440000
KOVE 151853Z AUTO 00000KT 10SM CLR 21/03 A3020 RMK AO2 SLP228 T02110033
KOVE 151753Z AUTO 15003KT 10SM CLR 19/01 A3020 RMK AO2 SLP228 T01940006 10194 20072 51011
KOVE 151653Z AUTO 18003KT 10SM CLR 16/01 A3020 RMK AO2 SLP227 T01560011
KOVE 151553Z AUTO 11003KT 10SM CLR 12/02 A3018 RMK AO2 SLP223 T01220017
KOVE 151453Z AUTO 00000KT 10SM CLR 08/02 A3017 RMK AO2 SLP217 T00830022 53011